sensor_id;sensor_type;location;lat;lon;timestamp;P1;durP1;ratioP1;P2;durP2;ratioP2
78787;SDS011;68131;52.508;5.502;2023-04-23T00:01:39;48.10;;;22.60;;
78787;SDS011;68131;52.508;5.502;2023-04-23T00:04:11;52.25;;;25.58;;
78787;SDS011;68131;52.508;5.502;2023-04-23T00:06:44;52.42;;;24.75;;
78787;SDS011;68131;52.508;5.502;2023-04-23T00:09:14;52.35;;;25.83;;
78787;SDS011;68131;52.508;5.502;2023-04-23T00:11:44;53.03;;;24.70;;
78787;SDS011;68131;52.508;5.502;2023-04-23T00:14:13;56.08;;;27.45;;
78787;SDS011;68131;52.508;5.502;2023-04-23T00:16:42;51.03;;;25.20;;
78787;SDS011;68131;52.508;5.502;2023-04-23T00:19:14;45.08;;;23.48;;
78787;SDS011;68131;52.508;5.502;2023-04-23T00:21:43;55.33;;;27.15;;
78787;SDS011;68131;52.508;5.502;2023-04-23T00:24:13;46.72;;;23.63;;
78787;SDS011;68131;52.508;5.502;2023-04-23T00:26:42;51.67;;;24.38;;
78787;SDS011;68131;52.508;5.502;2023-04-23T00:29:11;52.30;;;25.73;;
78787;SDS011;68131;52.508;5.502;2023-04-23T00:31:40;53.90;;;26.13;;
78787;SDS011;68131;52.508;5.502;2023-04-23T00:34:09;54.25;;;24.60;;
78787;SDS011;68131;52.508;5.502;2023-04-23T00:36:41;50.97;;;23.95;;
78787;SDS011;68131;52.508;5.502;2023-04-23T00:39:10;56.60;;;26.90;;
78787;SDS011;68131;52.508;5.502;2023-04-23T00:41:39;51.63;;;23.65;;
78787;SDS011;68131;52.508;5.502;2023-04-23T00:44:09;47.60;;;22.83;;
78787;SDS011;68131;52.508;5.502;2023-04-23T00:46:38;48.15;;;25.02;;
78787;SDS011;68131;52.508;5.502;2023-04-23T00:49:07;56.05;;;27.48;;
78787;SDS011;68131;52.508;5.502;2023-04-23T00:51:36;48.95;;;24.83;;
78787;SDS011;68131;52.508;5.502;2023-04-23T00:54:09;58.78;;;28.10;;
78787;SDS011;68131;52.508;5.502;2023-04-23T00:56:38;44.40;;;22.80;;
78787;SDS011;68131;52.508;5.502;2023-04-23T00:59:08;56.88;;;26.75;;
78787;SDS011;68131;52.508;5.502;2023-04-23T01:01:37;57.85;;;26.50;;
78787;SDS011;68131;52.508;5.502;2023-04-23T01:04:06;50.55;;;23.83;;
78787;SDS011;68131;52.508;5.502;2023-04-23T01:06:36;52.15;;;25.05;;
78787;SDS011;68131;52.508;5.502;2023-04-23T01:09:08;51.80;;;24.23;;
78787;SDS011;68131;52.508;5.502;2023-04-23T01:11:38;55.70;;;26.45;;
78787;SDS011;68131;52.508;5.502;2023-04-23T01:14:10;49.08;;;24.17;;
78787;SDS011;68131;52.508;5.502;2023-04-23T01:16:39;50.50;;;24.40;;
78787;SDS011;68131;52.508;5.502;2023-04-23T01:19:09;55.97;;;26.25;;
78787;SDS011;68131;52.508;5.502;2023-04-23T01:21:41;56.05;;;26.98;;
78787;SDS011;68131;52.508;5.502;2023-04-23T01:24:13;57.00;;;26.30;;
78787;SDS011;68131;52.508;5.502;2023-04-23T01:26:42;55.35;;;25.33;;
78787;SDS011;68131;52.508;5.502;2023-04-23T01:29:12;54.92;;;24.70;;
78787;SDS011;68131;52.508;5.502;2023-04-23T01:31:41;56.70;;;25.45;;
78787;SDS011;68131;52.508;5.502;2023-04-23T01:34:11;54.90;;;25.23;;
78787;SDS011;68131;52.508;5.502;2023-04-23T01:36:41;55.45;;;26.52;;
78787;SDS011;68131;52.508;5.502;2023-04-23T01:39:14;58.42;;;27.60;;
78787;SDS011;68131;52.508;5.502;2023-04-23T01:41:43;56.17;;;27.38;;
78787;SDS011;68131;52.508;5.502;2023-04-23T01:44:13;51.38;;;24.95;;
78787;SDS011;68131;52.508;5.502;2023-04-23T01:46:42;57.78;;;26.85;;
78787;SDS011;68131;52.508;5.502;2023-04-23T01:49:13;58.13;;;26.15;;
78787;SDS011;68131;52.508;5.502;2023-04-23T01:51:42;58.40;;;26.80;;
78787;SDS011;68131;52.508;5.502;2023-04-23T01:54:14;63.30;;;28.85;;
78787;SDS011;68131;52.508;5.502;2023-04-23T01:56:44;59.00;;;26.08;;
78787;SDS011;68131;52.508;5.502;2023-04-23T01:59:13;62.72;;;28.50;;
78787;SDS011;68131;52.508;5.502;2023-04-23T02:01:42;62.90;;;29.25;;
78787;SDS011;68131;52.508;5.502;2023-04-23T02:04:13;60.90;;;25.80;;
78787;SDS011;68131;52.508;5.502;2023-04-23T02:06:44;60.72;;;28.08;;
78787;SDS011;68131;52.508;5.502;2023-04-23T02:09:19;60.22;;;27.25;;
78787;SDS011;68131;52.508;5.502;2023-04-23T02:11:48;63.42;;;26.98;;
78787;SDS011;68131;52.508;5.502;2023-04-23T02:14:17;60.13;;;28.38;;
78787;SDS011;68131;52.508;5.502;2023-04-23T02:16:46;59.22;;;25.05;;
78787;SDS011;68131;52.508;5.502;2023-04-23T02:19:16;56.67;;;25.85;;
78787;SDS011;68131;52.508;5.502;2023-04-23T02:21:45;59.75;;;26.08;;
78787;SDS011;68131;52.508;5.502;2023-04-23T02:24:14;53.90;;;25.55;;
78787;SDS011;68131;52.508;5.502;2023-04-23T02:26:46;58.33;;;25.38;;
78787;SDS011;68131;52.508;5.502;2023-04-23T02:29:15;60.88;;;26.20;;
78787;SDS011;68131;52.508;5.502;2023-04-23T02:31:44;58.83;;;26.85;;
78787;SDS011;68131;52.508;5.502;2023-04-23T02:34:13;51.63;;;24.63;;
78787;SDS011;68131;52.508;5.502;2023-04-23T02:36:42;60.72;;;26.88;;
78787;SDS011;68131;52.508;5.502;2023-04-23T02:39:11;47.88;;;22.40;;
78787;SDS011;68131;52.508;5.502;2023-04-23T02:41:41;61.40;;;26.77;;
78787;SDS011;68131;52.508;5.502;2023-04-23T02:44:12;55.40;;;25.15;;
78787;SDS011;68131;52.508;5.502;2023-04-23T02:46:41;54.00;;;25.67;;
78787;SDS011;68131;52.508;5.502;2023-04-23T02:49:11;52.05;;;24.80;;
78787;SDS011;68131;52.508;5.502;2023-04-23T02:51:40;52.35;;;24.00;;
78787;SDS011;68131;52.508;5.502;2023-04-23T02:54:09;54.72;;;26.38;;
78787;SDS011;68131;52.508;5.502;2023-04-23T02:56:39;52.20;;;23.55;;
78787;SDS011;68131;52.508;5.502;2023-04-23T02:59:08;53.42;;;25.63;;
78787;SDS011;68131;52.508;5.502;2023-04-23T03:01:40;56.00;;;25.20;;
78787;SDS011;68131;52.508;5.502;2023-04-23T03:04:10;57.72;;;24.88;;
78787;SDS011;68131;52.508;5.502;2023-04-23T03:06:39;57.85;;;25.98;;
78787;SDS011;68131;52.508;5.502;2023-04-23T03:09:08;47.53;;;23.27;;
78787;SDS011;68131;52.508;5.502;2023-04-23T03:11:37;51.30;;;24.67;;
78787;SDS011;68131;52.508;5.502;2023-04-23T03:14:07;52.83;;;25.17;;
78787;SDS011;68131;52.508;5.502;2023-04-23T03:16:39;50.38;;;23.85;;
78787;SDS011;68131;52.508;5.502;2023-04-23T03:19:08;54.55;;;25.27;;
78787;SDS011;68131;52.508;5.502;2023-04-23T03:21:38;56.45;;;26.02;;
78787;SDS011;68131;52.508;5.502;2023-04-23T03:24:09;51.70;;;24.85;;
78787;SDS011;68131;52.508;5.502;2023-04-23T03:26:40;52.13;;;26.20;;
78787;SDS011;68131;52.508;5.502;2023-04-23T03:29:09;47.30;;;23.35;;
78787;SDS011;68131;52.508;5.502;2023-04-23T03:31:41;50.17;;;24.88;;
78787;SDS011;68131;52.508;5.502;2023-04-23T03:34:10;48.20;;;22.63;;
78787;SDS011;68131;52.508;5.502;2023-04-23T03:36:39;50.63;;;24.10;;
78787;SDS011;68131;52.508;5.502;2023-04-23T03:39:09;53.47;;;24.52;;
78787;SDS011;68131;52.508;5.502;2023-04-23T03:41:51;49.05;;;23.73;;
78787;SDS011;68131;52.508;5.502;2023-04-23T03:44:24;45.83;;;21.55;;
78787;SDS011;68131;52.508;5.502;2023-04-23T03:46:56;43.85;;;19.95;;
78787;SDS011;68131;52.508;5.502;2023-04-23T03:49:25;43.42;;;19.92;;
78787;SDS011;68131;52.508;5.502;2023-04-23T03:51:55;44.55;;;22.45;;
78787;SDS011;68131;52.508;5.502;2023-04-23T03:54:24;44.65;;;21.75;;
78787;SDS011;68131;52.508;5.502;2023-04-23T03:57:13;41.75;;;20.58;;
78787;SDS011;68131;52.508;5.502;2023-04-23T04:00:02;37.03;;;20.33;;
78787;SDS011;68131;52.508;5.502;2023-04-23T04:02:41;38.05;;;20.05;;
78787;SDS011;68131;52.508;5.502;2023-04-23T04:05:11;39.28;;;20.70;;
78787;SDS011;68131;52.508;5.502;2023-04-23T04:07:41;38.55;;;19.65;;
78787;SDS011;68131;52.508;5.502;2023-04-23T04:10:10;36.58;;;19.27;;
78787;SDS011;68131;52.508;5.502;2023-04-23T04:12:39;41.25;;;19.67;;
78787;SDS011;68131;52.508;5.502;2023-04-23T04:15:10;36.50;;;19.02;;
78787;SDS011;68131;52.508;5.502;2023-04-23T04:17:42;38.70;;;18.70;;
78787;SDS011;68131;52.508;5.502;2023-04-23T04:20:11;44.35;;;19.55;;
78787;SDS011;68131;52.508;5.502;2023-04-23T04:22:40;41.92;;;18.70;;
78787;SDS011;68131;52.508;5.502;2023-04-23T04:25:11;42.13;;;21.30;;
78787;SDS011;68131;52.508;5.502;2023-04-23T04:27:40;38.33;;;17.92;;
78787;SDS011;68131;52.508;5.502;2023-04-23T04:30:09;40.65;;;20.13;;
78787;SDS011;68131;52.508;5.502;2023-04-23T04:32:42;37.28;;;18.67;;
78787;SDS011;68131;52.508;5.502;2023-04-23T04:35:11;40.08;;;19.83;;
78787;SDS011;68131;52.508;5.502;2023-04-23T04:37:41;38.22;;;20.35;;
78787;SDS011;68131;52.508;5.502;2023-04-23T04:40:11;35.25;;;18.58;;
78787;SDS011;68131;52.508;5.502;2023-04-23T04:42:40;39.97;;;19.70;;
78787;SDS011;68131;52.508;5.502;2023-04-23T04:45:11;39.55;;;19.83;;
78787;SDS011;68131;52.508;5.502;2023-04-23T04:47:44;41.60;;;19.60;;
78787;SDS011;68131;52.508;5.502;2023-04-23T04:50:13;40.67;;;19.00;;
78787;SDS011;68131;52.508;5.502;2023-04-23T04:52:42;37.13;;;18.15;;
78787;SDS011;68131;52.508;5.502;2023-04-23T04:55:11;39.70;;;20.30;;
78787;SDS011;68131;52.508;5.502;2023-04-23T04:57:40;37.03;;;18.48;;
78787;SDS011;68131;52.508;5.502;2023-04-23T05:00:22;38.65;;;18.05;;
78787;SDS011;68131;52.508;5.502;2023-04-23T05:02:55;38.50;;;18.88;;
78787;SDS011;68131;52.508;5.502;2023-04-23T05:05:25;34.67;;;17.33;;
78787;SDS011;68131;52.508;5.502;2023-04-23T05:07:55;37.33;;;18.52;;
78787;SDS011;68131;52.508;5.502;2023-04-23T05:10:26;40.20;;;20.30;;
78787;SDS011;68131;52.508;5.502;2023-04-23T05:12:56;40.88;;;19.50;;
78787;SDS011;68131;52.508;5.502;2023-04-23T05:15:25;36.40;;;18.27;;
78787;SDS011;68131;52.508;5.502;2023-04-23T05:17:57;34.38;;;17.38;;
78787;SDS011;68131;52.508;5.502;2023-04-23T05:20:26;35.17;;;16.40;;
78787;SDS011;68131;52.508;5.502;2023-04-23T05:22:55;36.63;;;18.15;;
78787;SDS011;68131;52.508;5.502;2023-04-23T05:25:27;35.97;;;18.17;;
78787;SDS011;68131;52.508;5.502;2023-04-23T05:27:56;35.30;;;18.23;;
78787;SDS011;68131;52.508;5.502;2023-04-23T05:30:26;34.05;;;16.60;;
78787;SDS011;68131;52.508;5.502;2023-04-23T05:32:57;34.95;;;17.15;;
78787;SDS011;68131;52.508;5.502;2023-04-23T05:35:26;34.28;;;17.90;;
78787;SDS011;68131;52.508;5.502;2023-04-23T05:37:56;32.13;;;17.98;;
78787;SDS011;68131;52.508;5.502;2023-04-23T05:40:27;31.92;;;17.23;;
78787;SDS011;68131;52.508;5.502;2023-04-23T05:42:56;34.58;;;18.17;;
78787;SDS011;68131;52.508;5.502;2023-04-23T05:45:26;35.75;;;17.95;;
78787;SDS011;68131;52.508;5.502;2023-04-23T05:47:58;31.17;;;16.42;;
78787;SDS011;68131;52.508;5.502;2023-04-23T05:50:27;30.15;;;16.60;;
78787;SDS011;68131;52.508;5.502;2023-04-23T05:52:56;31.35;;;16.63;;
78787;SDS011;68131;52.508;5.502;2023-04-23T05:55:25;30.13;;;16.17;;
78787;SDS011;68131;52.508;5.502;2023-04-23T05:57:55;27.90;;;15.63;;
78787;SDS011;68131;52.508;5.502;2023-04-23T06:00:24;27.27;;;15.50;;
78787;SDS011;68131;52.508;5.502;2023-04-23T06:02:53;30.17;;;15.98;;
78787;SDS011;68131;52.508;5.502;2023-04-23T06:05:25;29.30;;;16.85;;
78787;SDS011;68131;52.508;5.502;2023-04-23T06:07:54;25.77;;;15.38;;
78787;SDS011;68131;52.508;5.502;2023-04-23T06:10:23;25.05;;;15.23;;
78787;SDS011;68131;52.508;5.502;2023-04-23T06:12:52;27.63;;;16.80;;
78787;SDS011;68131;52.508;5.502;2023-04-23T06:15:21;26.48;;;14.18;;
78787;SDS011;68131;52.508;5.502;2023-04-23T06:17:51;26.45;;;14.68;;
78787;SDS011;68131;52.508;5.502;2023-04-23T06:20:21;24.67;;;14.38;;
78787;SDS011;68131;52.508;5.502;2023-04-23T06:22:52;27.67;;;13.98;;
78787;SDS011;68131;52.508;5.502;2023-04-23T06:25:22;25.65;;;15.23;;
78787;SDS011;68131;52.508;5.502;2023-04-23T06:27:51;24.45;;;15.48;;
78787;SDS011;68131;52.508;5.502;2023-04-23T06:30:24;23.27;;;13.48;;
78787;SDS011;68131;52.508;5.502;2023-04-23T06:32:53;22.58;;;14.25;;
78787;SDS011;68131;52.508;5.502;2023-04-23T06:35:22;22.50;;;12.57;;
78787;SDS011;68131;52.508;5.502;2023-04-23T06:37:54;23.50;;;13.23;;
78787;SDS011;68131;52.508;5.502;2023-04-23T06:40:23;25.20;;;13.90;;
78787;SDS011;68131;52.508;5.502;2023-04-23T06:42:52;21.63;;;14.25;;
78787;SDS011;68131;52.508;5.502;2023-04-23T06:45:50;22.48;;;13.35;;
78787;SDS011;68131;52.508;5.502;2023-04-23T06:48:19;23.65;;;14.05;;
78787;SDS011;68131;52.508;5.502;2023-04-23T06:50:50;25.08;;;14.07;;
78787;SDS011;68131;52.508;5.502;2023-04-23T06:53:22;19.38;;;12.10;;
78787;SDS011;68131;52.508;5.502;2023-04-23T06:55:51;19.23;;;12.02;;
78787;SDS011;68131;52.508;5.502;2023-04-23T06:58:20;18.63;;;12.68;;
78787;SDS011;68131;52.508;5.502;2023-04-23T07:00:55;21.10;;;13.25;;
78787;SDS011;68131;52.508;5.502;2023-04-23T07:03:27;17.60;;;11.27;;
78787;SDS011;68131;52.508;5.502;2023-04-23T07:05:57;19.80;;;12.00;;
78787;SDS011;68131;52.508;5.502;2023-04-23T07:08:28;21.58;;;12.57;;
78787;SDS011;68131;52.508;5.502;2023-04-23T07:10:58;19.00;;;12.85;;
78787;SDS011;68131;52.508;5.502;2023-04-23T07:13:27;16.65;;;11.27;;
78787;SDS011;68131;52.508;5.502;2023-04-23T07:15:56;18.55;;;12.20;;
78787;SDS011;68131;52.508;5.502;2023-04-23T07:18:25;19.58;;;12.07;;
78787;SDS011;68131;52.508;5.502;2023-04-23T07:20:54;16.63;;;11.32;;
78787;SDS011;68131;52.508;5.502;2023-04-23T07:23:23;18.98;;;10.82;;
78787;SDS011;68131;52.508;5.502;2023-04-23T07:25:55;18.40;;;11.88;;
78787;SDS011;68131;52.508;5.502;2023-04-23T07:28:24;18.00;;;10.93;;
78787;SDS011;68131;52.508;5.502;2023-04-23T07:30:53;16.63;;;10.07;;
78787;SDS011;68131;52.508;5.502;2023-04-23T07:35:00;17.40;;;10.95;;
78787;SDS011;68131;52.508;5.502;2023-04-23T07:37:29;17.52;;;10.88;;
78787;SDS011;68131;52.508;5.502;2023-04-23T07:39:58;16.88;;;11.32;;
78787;SDS011;68131;52.508;5.502;2023-04-23T07:42:28;17.10;;;10.35;;
78787;SDS011;68131;52.508;5.502;2023-04-23T07:44:57;16.60;;;11.02;;
78787;SDS011;68131;52.508;5.502;2023-04-23T07:47:26;15.05;;;9.88;;
78787;SDS011;68131;52.508;5.502;2023-04-23T07:49:55;13.68;;;9.27;;
78787;SDS011;68131;52.508;5.502;2023-04-23T07:52:27;13.70;;;8.77;;
78787;SDS011;68131;52.508;5.502;2023-04-23T07:54:56;15.35;;;9.82;;
78787;SDS011;68131;52.508;5.502;2023-04-23T07:57:25;14.07;;;9.57;;
78787;SDS011;68131;52.508;5.502;2023-04-23T07:59:54;13.10;;;7.80;;
78787;SDS011;68131;52.508;5.502;2023-04-23T08:02:23;13.93;;;8.88;;
78787;SDS011;68131;52.508;5.502;2023-04-23T08:04:53;14.30;;;9.02;;
78787;SDS011;68131;52.508;5.502;2023-04-23T08:07:22;13.75;;;9.00;;
78787;SDS011;68131;52.508;5.502;2023-04-23T08:09:54;15.43;;;8.98;;
78787;SDS011;68131;52.508;5.502;2023-04-23T08:12:27;13.43;;;8.27;;
78787;SDS011;68131;52.508;5.502;2023-04-23T08:14:58;13.27;;;9.13;;
78787;SDS011;68131;52.508;5.502;2023-04-23T08:17:34;11.93;;;7.30;;
78787;SDS011;68131;52.508;5.502;2023-04-23T08:20:03;10.82;;;7.18;;
78787;SDS011;68131;52.508;5.502;2023-04-23T08:22:33;11.30;;;7.53;;
78787;SDS011;68131;52.508;5.502;2023-04-23T08:25:06;13.07;;;7.20;;
78787;SDS011;68131;52.508;5.502;2023-04-23T08:27:37;10.75;;;7.20;;
78787;SDS011;68131;52.508;5.502;2023-04-23T08:30:07;11.90;;;7.55;;
78787;SDS011;68131;52.508;5.502;2023-04-23T08:32:37;10.07;;;7.28;;
78787;SDS011;68131;52.508;5.502;2023-04-23T08:35:07;10.05;;;6.75;;
78787;SDS011;68131;52.508;5.502;2023-04-23T08:37:37;9.43;;;6.47;;
78787;SDS011;68131;52.508;5.502;2023-04-23T08:40:09;8.00;;;5.72;;
78787;SDS011;68131;52.508;5.502;2023-04-23T08:42:40;8.63;;;4.78;;
78787;SDS011;68131;52.508;5.502;2023-04-23T08:45:11;9.52;;;6.10;;
78787;SDS011;68131;52.508;5.502;2023-04-23T08:47:41;8.55;;;5.68;;
78787;SDS011;68131;52.508;5.502;2023-04-23T08:50:11;8.98;;;4.68;;
78787;SDS011;68131;52.508;5.502;2023-04-23T08:52:47;7.57;;;4.95;;
78787;SDS011;68131;52.508;5.502;2023-04-23T08:55:22;5.90;;;3.92;;
78787;SDS011;68131;52.508;5.502;2023-04-23T08:57:55;8.10;;;4.63;;
78787;SDS011;68131;52.508;5.502;2023-04-23T09:00:26;7.85;;;3.95;;
78787;SDS011;68131;52.508;5.502;2023-04-23T09:02:55;5.95;;;4.22;;
78787;SDS011;68131;52.508;5.502;2023-04-23T09:05:24;6.32;;;4.15;;
78787;SDS011;68131;52.508;5.502;2023-04-23T09:07:54;7.20;;;4.18;;
78787;SDS011;68131;52.508;5.502;2023-04-23T09:10:27;5.70;;;4.00;;
78787;SDS011;68131;52.508;5.502;2023-04-23T09:12:57;8.63;;;4.18;;
78787;SDS011;68131;52.508;5.502;2023-04-23T09:15:26;6.03;;;3.78;;
78787;SDS011;68131;52.508;5.502;2023-04-23T09:17:56;7.25;;;4.18;;
78787;SDS011;68131;52.508;5.502;2023-04-23T09:20:27;7.55;;;3.40;;
78787;SDS011;68131;52.508;5.502;2023-04-23T09:22:56;7.63;;;3.80;;
78787;SDS011;68131;52.508;5.502;2023-04-23T09:25:28;5.82;;;3.40;;
78787;SDS011;68131;52.508;5.502;2023-04-23T09:27:57;4.93;;;2.60;;
78787;SDS011;68131;52.508;5.502;2023-04-23T09:30:26;7.25;;;3.35;;
78787;SDS011;68131;52.508;5.502;2023-04-23T09:32:56;6.15;;;3.63;;
78787;SDS011;68131;52.508;5.502;2023-04-23T09:35:25;5.97;;;3.63;;
78787;SDS011;68131;52.508;5.502;2023-04-23T09:37:55;4.88;;;2.80;;
78787;SDS011;68131;52.508;5.502;2023-04-23T09:40:32;5.25;;;2.22;;
78787;SDS011;68131;52.508;5.502;2023-04-23T09:43:03;4.10;;;2.40;;
78787;SDS011;68131;52.508;5.502;2023-04-23T09:45:32;6.07;;;2.47;;
78787;SDS011;68131;52.508;5.502;2023-04-23T09:48:02;5.28;;;2.50;;
78787;SDS011;68131;52.508;5.502;2023-04-23T09:50:32;4.00;;;2.10;;
78787;SDS011;68131;52.508;5.502;2023-04-23T09:53:03;3.03;;;1.75;;
78787;SDS011;68131;52.508;5.502;2023-04-23T09:55:36;4.47;;;2.30;;
78787;SDS011;68131;52.508;5.502;2023-04-23T09:58:10;3.90;;;2.00;;
78787;SDS011;68131;52.508;5.502;2023-04-23T10:00:41;4.50;;;2.10;;
78787;SDS011;68131;52.508;5.502;2023-04-23T10:03:10;5.25;;;1.83;;
78787;SDS011;68131;52.508;5.502;2023-04-23T10:05:40;5.63;;;2.17;;
78787;SDS011;68131;52.508;5.502;2023-04-23T10:08:11;5.20;;;2.30;;
78787;SDS011;68131;52.508;5.502;2023-04-23T10:10:44;5.90;;;2.45;;
78787;SDS011;68131;52.508;5.502;2023-04-23T10:13:15;4.93;;;1.98;;
78787;SDS011;68131;52.508;5.502;2023-04-23T10:15:45;8.45;;;2.00;;
78787;SDS011;68131;52.508;5.502;2023-04-23T10:18:14;6.05;;;2.03;;
78787;SDS011;68131;52.508;5.502;2023-04-23T10:20:44;4.05;;;1.60;;
78787;SDS011;68131;52.508;5.502;2023-04-23T10:23:13;8.35;;;1.88;;
78787;SDS011;68131;52.508;5.502;2023-04-23T10:25:47;3.80;;;1.40;;
78787;SDS011;68131;52.508;5.502;2023-04-23T10:28:16;6.53;;;1.83;;
78787;SDS011;68131;52.508;5.502;2023-04-23T10:30:53;7.25;;;1.40;;
78787;SDS011;68131;52.508;5.502;2023-04-23T10:33:24;3.63;;;1.23;;
78787;SDS011;68131;52.508;5.502;2023-04-23T10:35:56;7.40;;;1.50;;
78787;SDS011;68131;52.508;5.502;2023-04-23T10:38:25;6.97;;;1.38;;
78787;SDS011;68131;52.508;5.502;2023-04-23T10:40:58;3.47;;;1.10;;
78787;SDS011;68131;52.508;5.502;2023-04-23T10:43:30;6.38;;;1.48;;
78787;SDS011;68131;52.508;5.502;2023-04-23T10:45:59;7.47;;;1.45;;
78787;SDS011;68131;52.508;5.502;2023-04-23T10:48:28;2.95;;;0.82;;
78787;SDS011;68131;52.508;5.502;2023-04-23T10:51:17;6.75;;;1.30;;
78787;SDS011;68131;52.508;5.502;2023-04-23T10:53:46;10.80;;;1.80;;
78787;SDS011;68131;52.508;5.502;2023-04-23T10:56:18;6.55;;;1.60;;
78787;SDS011;68131;52.508;5.502;2023-04-23T10:58:48;4.32;;;1.02;;
78787;SDS011;68131;52.508;5.502;2023-04-23T11:01:18;6.10;;;1.15;;
78787;SDS011;68131;52.508;5.502;2023-04-23T11:03:51;6.07;;;1.20;;
78787;SDS011;68131;52.508;5.502;2023-04-23T11:09:29;10.45;;;1.33;;
78787;SDS011;68131;52.508;5.502;2023-04-23T11:12:04;2.70;;;1.00;;
78787;SDS011;68131;52.508;5.502;2023-04-23T11:14:36;6.88;;;1.20;;
78787;SDS011;68131;52.508;5.502;2023-04-23T11:22:35;5.05;;;1.20;;
78787;SDS011;68131;52.508;5.502;2023-04-23T11:25:07;4.38;;;1.27;;
78787;SDS011;68131;52.508;5.502;2023-04-23T11:27:40;5.90;;;1.55;;
78787;SDS011;68131;52.508;5.502;2023-04-23T11:30:11;3.67;;;1.15;;
78787;SDS011;68131;52.508;5.502;2023-04-23T11:32:43;3.20;;;1.20;;
78787;SDS011;68131;52.508;5.502;2023-04-23T11:35:13;3.33;;;0.90;;
78787;SDS011;68131;52.508;5.502;2023-04-23T11:37:43;2.92;;;1.10;;
78787;SDS011;68131;52.508;5.502;2023-04-23T11:40:14;6.20;;;1.75;;
78787;SDS011;68131;52.508;5.502;2023-04-23T11:42:48;3.30;;;1.52;;
78787;SDS011;68131;52.508;5.502;2023-04-23T11:45:19;3.30;;;1.30;;
78787;SDS011;68131;52.508;5.502;2023-04-23T11:47:49;9.85;;;1.45;;
78787;SDS011;68131;52.508;5.502;2023-04-23T11:50:21;3.65;;;1.15;;
78787;SDS011;68131;52.508;5.502;2023-04-23T11:52:51;4.47;;;1.20;;
78787;SDS011;68131;52.508;5.502;2023-04-23T11:55:21;5.32;;;1.58;;
78787;SDS011;68131;52.508;5.502;2023-04-23T11:57:53;3.78;;;0.93;;
78787;SDS011;68131;52.508;5.502;2023-04-23T12:00:25;6.35;;;1.45;;
78787;SDS011;68131;52.508;5.502;2023-04-23T12:02:55;3.53;;;1.27;;
78787;SDS011;68131;52.508;5.502;2023-04-23T12:05:26;3.88;;;0.95;;
78787;SDS011;68131;52.508;5.502;2023-04-23T12:08:05;3.03;;;0.95;;
78787;SDS011;68131;52.508;5.502;2023-04-23T12:10:40;6.25;;;1.30;;
78787;SDS011;68131;52.508;5.502;2023-04-23T12:13:18;2.95;;;1.15;;
78787;SDS011;68131;52.508;5.502;2023-04-23T12:15:49;3.80;;;1.00;;
78787;SDS011;68131;52.508;5.502;2023-04-23T12:18:25;4.30;;;1.15;;
78787;SDS011;68131;52.508;5.502;2023-04-23T12:20:55;4.25;;;1.33;;
78787;SDS011;68131;52.508;5.502;2023-04-23T12:23:31;6.75;;;1.33;;
78787;SDS011;68131;52.508;5.502;2023-04-23T12:26:01;5.72;;;1.00;;
78787;SDS011;68131;52.508;5.502;2023-04-23T12:28:33;2.40;;;0.88;;
78787;SDS011;68131;52.508;5.502;2023-04-23T12:31:03;3.47;;;1.08;;
78787;SDS011;68131;52.508;5.502;2023-04-23T12:33:32;5.25;;;1.00;;
78787;SDS011;68131;52.508;5.502;2023-04-23T12:36:01;3.22;;;0.95;;
78787;SDS011;68131;52.508;5.502;2023-04-23T12:38:30;5.43;;;1.00;;
78787;SDS011;68131;52.508;5.502;2023-04-23T12:41:03;3.72;;;1.00;;
78787;SDS011;68131;52.508;5.502;2023-04-23T12:43:35;4.50;;;1.00;;
78787;SDS011;68131;52.508;5.502;2023-04-23T12:46:04;3.45;;;1.15;;
78787;SDS011;68131;52.508;5.502;2023-04-23T12:48:33;4.50;;;1.00;;
78787;SDS011;68131;52.508;5.502;2023-04-23T12:51:02;2.85;;;1.10;;
78787;SDS011;68131;52.508;5.502;2023-04-23T12:53:32;2.75;;;1.45;;
78787;SDS011;68131;52.508;5.502;2023-04-23T12:56:01;3.47;;;1.25;;
78787;SDS011;68131;52.508;5.502;2023-04-23T12:58:30;3.40;;;0.80;;
78787;SDS011;68131;52.508;5.502;2023-04-23T13:01:01;5.93;;;0.95;;
78787;SDS011;68131;52.508;5.502;2023-04-23T13:03:30;7.60;;;1.02;;
78787;SDS011;68131;52.508;5.502;2023-04-23T13:06:00;3.85;;;1.00;;
78787;SDS011;68131;52.508;5.502;2023-04-23T13:08:29;5.35;;;0.88;;
78787;SDS011;68131;52.508;5.502;2023-04-23T13:10:58;3.67;;;0.90;;
78787;SDS011;68131;52.508;5.502;2023-04-23T13:13:28;4.43;;;1.00;;
78787;SDS011;68131;52.508;5.502;2023-04-23T13:15:57;2.65;;;0.98;;
78787;SDS011;68131;52.508;5.502;2023-04-23T13:18:28;3.88;;;0.63;;
78787;SDS011;68131;52.508;5.502;2023-04-23T13:20:57;3.50;;;0.70;;
78787;SDS011;68131;52.508;5.502;2023-04-23T13:23:27;3.90;;;1.45;;
78787;SDS011;68131;52.508;5.502;2023-04-23T13:25:56;2.80;;;1.05;;
78787;SDS011;68131;52.508;5.502;2023-04-23T13:28:25;3.60;;;1.20;;
78787;SDS011;68131;52.508;5.502;2023-04-23T13:30:54;5.28;;;0.93;;
78787;SDS011;68131;52.508;5.502;2023-04-23T13:33:23;2.38;;;1.00;;
78787;SDS011;68131;52.508;5.502;2023-04-23T13:35:55;3.17;;;0.88;;
78787;SDS011;68131;52.508;5.502;2023-04-23T13:38:24;2.28;;;0.65;;
78787;SDS011;68131;52.508;5.502;2023-04-23T13:40:53;1.85;;;0.55;;
78787;SDS011;68131;52.508;5.502;2023-04-23T13:43:22;4.38;;;1.20;;
78787;SDS011;68131;52.508;5.502;2023-04-23T13:45:52;2.90;;;0.77;;
78787;SDS011;68131;52.508;5.502;2023-04-23T13:48:21;2.53;;;0.85;;
78787;SDS011;68131;52.508;5.502;2023-04-23T13:50:58;8.00;;;2.03;;
78787;SDS011;68131;52.508;5.502;2023-04-23T13:53:28;2.50;;;0.80;;
78787;SDS011;68131;52.508;5.502;2023-04-23T13:55:58;3.05;;;0.85;;
78787;SDS011;68131;52.508;5.502;2023-04-23T13:58:27;3.63;;;1.00;;
78787;SDS011;68131;52.508;5.502;2023-04-23T14:00:56;2.35;;;0.82;;
78787;SDS011;68131;52.508;5.502;2023-04-23T14:03:25;3.45;;;0.70;;
78787;SDS011;68131;52.508;5.502;2023-04-23T14:05:54;2.40;;;1.50;;
78787;SDS011;68131;52.508;5.502;2023-04-23T14:08:26;2.65;;;0.80;;
78787;SDS011;68131;52.508;5.502;2023-04-23T14:10:55;2.92;;;0.70;;
78787;SDS011;68131;52.508;5.502;2023-04-23T14:13:25;3.47;;;0.80;;
78787;SDS011;68131;52.508;5.502;2023-04-23T14:15:54;2.17;;;0.60;;
78787;SDS011;68131;52.508;5.502;2023-04-23T14:18:23;3.03;;;0.68;;
78787;SDS011;68131;52.508;5.502;2023-04-23T14:20:52;3.60;;;0.80;;
78787;SDS011;68131;52.508;5.502;2023-04-23T14:26:26;3.17;;;1.00;;
78787;SDS011;68131;52.508;5.502;2023-04-23T14:29:05;4.63;;;0.77;;
78787;SDS011;68131;52.508;5.502;2023-04-23T14:31:37;2.28;;;0.70;;
78787;SDS011;68131;52.508;5.502;2023-04-23T14:34:06;3.50;;;0.90;;
78787;SDS011;68131;52.508;5.502;2023-04-23T14:36:36;2.60;;;0.60;;
78787;SDS011;68131;52.508;5.502;2023-04-23T14:39:07;1.23;;;0.75;;
78787;SDS011;68131;52.508;5.502;2023-04-23T14:41:37;2.78;;;0.90;;
78787;SDS011;68131;52.508;5.502;2023-04-23T14:44:06;2.65;;;0.80;;
78787;SDS011;68131;52.508;5.502;2023-04-23T14:46:35;2.92;;;0.88;;
78787;SDS011;68131;52.508;5.502;2023-04-23T14:49:04;3.20;;;1.58;;
78787;SDS011;68131;52.508;5.502;2023-04-23T14:51:33;2.15;;;0.75;;
78787;SDS011;68131;52.508;5.502;2023-04-23T14:54:03;2.85;;;0.90;;
78787;SDS011;68131;52.508;5.502;2023-04-23T14:56:35;4.30;;;0.95;;
78787;SDS011;68131;52.508;5.502;2023-04-23T14:59:04;2.13;;;0.68;;
78787;SDS011;68131;52.508;5.502;2023-04-23T15:01:33;3.25;;;0.60;;
78787;SDS011;68131;52.508;5.502;2023-04-23T15:04:02;2.50;;;0.75;;
78787;SDS011;68131;52.508;5.502;2023-04-23T15:06:32;2.15;;;0.60;;